Time;durP1;ratioP1;P1;durP2;ratioP2;P2;SDS_P1;SDS_P2;PMS_P1;PMS_P2;Temp;Humidity;BMP_temperature;BMP_pressure;BME280_temperature;BME280_humidity;BME280_pressure;Samples;Min_cycle;Max_cycle;Signal;HPM_P1;HPM_P2
2023/07/24 00:00:10;;;;;;;5.43;2.80;;;17.50;96.10;;;;;;5009403;28;20510;-70
2023/07/24 00:02:36;;;;;;;5.53;3.13;;;17.50;96.10;;;;;;5012652;28;20038;-70
2023/07/24 00:05:01;;;;;;;4.78;3.05;;;17.50;96.30;;;;;;5006875;28;20096;-70
2023/07/24 00:07:27;;;;;;;5.25;3.00;;;17.40;96.40;;;;;;5007179;28;20022;-70
2023/07/24 00:09:52;;;;;;;5.60;3.15;;;17.40;96.50;;;;;;5012301;28;20034;-70
2023/07/24 00:12:18;;;;;;;5.65;2.97;;;17.40;96.60;;;;;;5002753;28;20026;-70
2023/07/24 00:14:43;;;;;;;4.57;3.08;;;17.30;96.70;;;;;;5006808;28;20017;-70
2023/07/24 00:17:09;;;;;;;7.60;3.60;;;17.30;96.80;;;;;;5011355;28;20053;-70
2023/07/24 00:19:34;;;;;;;7.13;3.33;;;17.30;96.90;;;;;;5009693;28;20042;-70
2023/07/24 00:21:59;;;;;;;5.35;3.13;;;17.30;96.80;;;;;;5009147;28;20034;-70
2023/07/24 00:24:25;;;;;;;4.80;3.28;;;17.40;96.80;;;;;;5009661;28;20034;-70
2023/07/24 00:26:50;;;;;;;6.22;3.03;;;17.40;96.90;;;;;;5004654;28;20038;-70
2023/07/24 00:29:16;;;;;;;4.85;3.25;;;17.40;96.80;;;;;;5011728;28;20113;-70
2023/07/24 00:31:41;;;;;;;4.53;3.15;;;17.40;96.80;;;;;;5011576;28;20034;-70
2023/07/24 00:34:07;;;;;;;6.65;3.58;;;17.40;96.90;;;;;;5006271;28;20071;-70
2023/07/24 00:36:32;;;;;;;6.20;3.30;;;17.40;97.00;;;;;;5011979;28;20026;-70
2023/07/24 00:38:58;;;;;;;6.38;3.47;;;17.40;97.00;;;;;;5008812;28;20422;-70
2023/07/24 00:41:23;;;;;;;6.00;3.15;;;17.40;96.90;;;;;;5019026;28;20030;-70
2023/07/24 00:43:49;;;;;;;5.88;3.53;;;17.40;96.90;;;;;;5008564;28;20045;-70
2023/07/24 00:46:14;;;;;;;6.35;3.33;;;17.40;97.00;;;;;;5010682;28;20457;-70
2023/07/24 00:48:40;;;;;;;4.93;3.03;;;17.40;97.10;;;;;;5010982;28;20115;-70
2023/07/24 00:51:06;;;;;;;6.63;3.47;;;17.40;97.10;;;;;;5025758;28;20460;-70
2023/07/24 00:53:32;;;;;;;5.22;3.17;;;17.40;97.10;;;;;;5005999;28;20041;-70
2023/07/24 00:55:57;;;;;;;4.70;3.22;;;17.40;97.10;;;;;;5009088;28;20139;-70
2023/07/24 00:58:23;;;;;;;5.22;3.30;;;17.50;97.00;;;;;;5010594;28;20030;-70
2023/07/24 01:00:50;;;;;;;7.55;3.40;;;17.40;97.10;;;;;;5008804;28;20077;-70
2023/07/24 01:03:15;;;;;;;5.15;3.08;;;17.50;97.00;;;;;;5010264;28;20068;-70
2023/07/24 01:05:41;;;;;;;6.13;2.85;;;17.50;97.10;;;;;;5002131;28;20375;-70
2023/07/24 01:08:07;;;;;;;6.50;3.38;;;17.50;97.00;;;;;;5005094;28;20022;-70
2023/07/24 01:10:32;;;;;;;5.72;3.33;;;17.50;97.10;;;;;;5009685;28;20037;-70
2023/07/24 01:13:06;;;;;;;6.75;3.15;;;17.50;97.10;;;;;;5008773;28;20077;-70
2023/07/24 01:15:41;;;;;;;6.65;3.85;;;17.50;97.10;;;;;;5007858;28;20018;-70
2023/07/24 01:18:09;;;;;;;4.28;3.00;;;17.50;97.20;;;;;;5009652;28;20045;-70
2023/07/24 01:20:37;;;;;;;7.28;3.92;;;17.50;97.00;;;;;;5011209;28;20022;-70
2023/07/24 01:23:35;;;;;;;7.63;3.90;;;17.50;97.00;;;;;;5005403;28;20026;-70
2023/07/24 01:26:04;;;;;;;5.10;3.33;;;17.60;96.90;;;;;;5007506;28;20105;-70
2023/07/24 01:28:30;;;;;;;5.63;3.55;;;17.60;97.00;;;;;;5008182;28;20037;-70
2023/07/24 01:30:57;;;;;;;4.32;3.30;;;17.60;96.90;;;;;;5008655;28;20354;-70
2023/07/24 01:33:23;;;;;;;6.63;3.42;;;17.60;96.90;;;;;;5015993;28;20033;-70
2023/07/24 01:35:53;;;;;;;4.78;3.38;;;17.60;97.00;;;;;;5004114;28;20036;-70
2023/07/24 01:38:19;;;;;;;5.53;3.55;;;17.60;97.10;;;;;;5021559;28;20061;-70
2023/07/24 01:40:45;;;;;;;4.97;3.10;;;17.60;97.10;;;;;;5008779;28;20080;-70
2023/07/24 01:43:11;;;;;;;6.35;3.17;;;17.60;97.00;;;;;;5009597;28;20046;-70
2023/07/24 01:45:36;;;;;;;6.88;3.65;;;17.60;96.90;;;;;;5012396;28;20032;-70
2023/07/24 01:48:05;;;;;;;5.03;3.75;;;17.50;97.10;;;;;;5010754;28;20034;-70
2023/07/24 01:50:31;;;;;;;5.40;3.70;;;17.60;97.00;;;;;;5006595;28;20038;-70
2023/07/24 01:52:56;;;;;;;4.90;3.45;;;17.60;96.90;;;;;;5006455;28;20030;-70
2023/07/24 01:55:22;;;;;;;5.78;3.72;;;17.60;96.70;;;;;;5010313;28;20354;-70
2023/07/24 01:57:47;;;;;;;7.10;3.10;;;17.60;96.70;;;;;;5006939;28;20037;-70
2023/07/24 02:00:13;;;;;;;5.63;3.47;;;17.60;96.80;;;;;;5009333;28;20034;-70
2023/07/24 02:02:38;;;;;;;5.40;3.67;;;17.60;96.90;;;;;;5008794;28;20196;-71
2023/07/24 02:05:04;;;;;;;5.55;3.88;;;17.60;96.90;;;;;;5002669;28;20550;-70
2023/07/24 02:07:30;;;;;;;5.15;3.33;;;17.60;96.90;;;;;;5009903;28;20041;-70
2023/07/24 02:09:55;;;;;;;6.18;3.80;;;17.60;96.90;;;;;;5009111;28;20064;-70
2023/07/24 02:12:21;;;;;;;7.15;3.60;;;17.60;96.90;;;;;;5009076;28;20041;-70
2023/07/24 02:14:49;;;;;;;5.65;3.28;;;17.60;96.80;;;;;;5004943;28;20025;-70
2023/07/24 02:17:15;;;;;;;8.13;3.60;;;17.60;96.70;;;;;;5009415;28;20053;-70
2023/07/24 02:19:41;;;;;;;4.80;3.13;;;17.60;96.80;;;;;;5009952;28;20033;-71
2023/07/24 02:22:06;;;;;;;8.18;3.50;;;17.60;96.80;;;;;;5005564;28;20041;-70
2023/07/24 02:24:32;;;;;;;5.35;3.30;;;17.50;96.90;;;;;;5010523;28;20040;-70
2023/07/24 02:26:57;;;;;;;5.35;3.20;;;17.50;97.00;;;;;;5005132;28;20065;-70
2023/07/24 02:29:23;;;;;;;5.85;3.30;;;17.50;97.00;;;;;;5012378;28;20029;-70
2023/07/24 02:31:49;;;;;;;5.05;3.35;;;17.50;97.10;;;;;;5009377;28;20052;-70
2023/07/24 02:34:15;;;;;;;5.68;3.20;;;17.50;97.10;;;;;;5005807;28;20033;-70
2023/07/24 02:36:41;;;;;;;5.95;3.90;;;17.40;97.30;;;;;;4994300;28;20488;-70
2023/07/24 02:39:06;;;;;;;5.45;3.53;;;17.40;97.40;;;;;;5000792;28;20018;-70
2023/07/24 02:41:32;;;;;;;5.15;3.53;;;17.30;97.30;;;;;;5025030;28;20038;-70
2023/07/24 02:43:57;;;;;;;7.97;3.95;;;17.20;97.50;;;;;;5009153;28;20073;-70
2023/07/24 02:46:24;;;;;;;6.90;4.00;;;17.20;97.70;;;;;;5008259;28;20034;-70
2023/07/24 02:48:50;;;;;;;6.93;4.13;;;17.10;97.70;;;;;;5006283;28;20026;-70
2023/07/24 02:51:16;;;;;;;6.10;4.00;;;17.20;97.80;;;;;;5006937;28;20067;-70
2023/07/24 02:53:41;;;;;;;6.13;4.35;;;17.20;97.80;;;;;;5005014;28;20040;-70
2023/07/24 02:56:07;;;;;;;9.73;4.78;;;17.10;97.80;;;;;;5001809;28;20030;-70
2023/07/24 02:58:32;;;;;;;7.43;4.43;;;17.20;97.80;;;;;;5009618;28;20034;-70
2023/07/24 03:01:06;;;;;;;6.38;4.20;;;17.30;97.70;;;;;;5007003;28;20044;-70
2023/07/24 03:03:32;;;;;;;6.57;3.83;;;17.30;97.50;;;;;;5008999;28;20053;-70
2023/07/24 03:05:57;;;;;;;6.90;3.92;;;17.30;97.40;;;;;;5006823;28;20374;-70
2023/07/24 03:08:23;;;;;;;6.00;3.90;;;17.40;97.40;;;;;;5008060;28;20076;-70
2023/07/24 03:10:48;;;;;;;6.40;3.75;;;17.30;97.30;;;;;;5010135;28;20350;-70
2023/07/24 03:13:14;;;;;;;6.15;4.20;;;17.30;97.40;;;;;;5012855;28;20459;-70
2023/07/24 03:15:39;;;;;;;8.93;4.18;;;17.30;97.40;;;;;;5008609;28;20038;-70
2023/07/24 03:18:04;;;;;;;7.95;4.03;;;17.30;97.40;;;;;;5013825;28;20021;-70
2023/07/24 03:20:30;;;;;;;8.00;4.45;;;17.20;97.40;;;;;;5012529;28;20044;-70
2023/07/24 03:22:55;;;;;;;6.93;4.03;;;17.10;97.50;;;;;;5011005;28;20469;-70
2023/07/24 03:25:21;;;;;;;7.05;4.32;;;17.10;97.70;;;;;;5011743;28;20032;-70
2023/07/24 03:27:46;;;;;;;7.47;4.28;;;17.00;97.60;;;;;;5009928;28;20042;-70
2023/07/24 03:30:12;;;;;;;7.28;4.82;;;17.00;97.60;;;;;;5010717;28;20034;-70
2023/07/24 03:32:37;;;;;;;9.23;4.97;;;17.00;97.70;;;;;;5010991;28;20486;-70
2023/07/24 03:35:04;;;;;;;7.25;4.50;;;16.90;97.70;;;;;;5006854;28;20037;-70
2023/07/24 03:37:30;;;;;;;10.45;5.78;;;17.00;97.70;;;;;;5009649;28;20449;-70
2023/07/24 03:39:56;;;;;;;7.53;5.00;;;17.00;97.70;;;;;;5011309;28;20373;-70
2023/07/24 03:42:30;;;;;;;7.75;5.05;;;17.00;97.60;;;;;;5011318;28;20036;-70
2023/07/24 03:44:57;;;;;;;7.90;5.15;;;17.00;97.60;;;;;;5012295;28;20030;-70
2023/07/24 03:47:23;;;;;;;8.95;4.85;;;17.00;97.60;;;;;;5010445;28;20611;-70
2023/07/24 03:49:49;;;;;;;6.43;4.63;;;17.00;97.50;;;;;;5009787;28;20076;-70
2023/07/24 03:52:15;;;;;;;6.20;4.65;;;17.10;97.50;;;;;;5011240;28;20486;-70
2023/07/24 03:54:40;;;;;;;7.10;4.60;;;17.10;97.50;;;;;;5008461;28;20018;-70
2023/07/24 03:57:06;;;;;;;7.57;4.40;;;17.10;97.40;;;;;;5007858;28;20026;-70
2023/07/24 03:59:31;;;;;;;8.68;4.28;;;17.10;97.30;;;;;;5026698;28;20026;-70
2023/07/24 04:01:57;;;;;;;7.15;4.45;;;17.10;97.30;;;;;;5009481;28;20029;-70
2023/07/24 04:04:23;;;;;;;10.45;4.93;;;17.00;97.20;;;;;;5008825;28;20043;-70
2023/07/24 04:06:49;;;;;;;8.57;4.22;;;17.00;97.30;;;;;;5013500;28;20083;-70
2023/07/24 04:09:14;;;;;;;6.05;4.43;;;16.90;97.30;;;;;;5010782;28;20105;-70
2023/07/24 04:11:43;;;;;;;7.65;4.30;;;16.90;97.40;;;;;;5011765;28;20026;-70
2023/07/24 04:14:10;;;;;;;7.00;4.25;;;16.80;97.60;;;;;;5010859;28;20033;-70
2023/07/24 04:16:35;;;;;;;7.05;4.43;;;16.80;97.80;;;;;;5012300;28;20036;-69
2023/07/24 04:19:01;;;;;;;6.32;4.32;;;16.70;97.90;;;;;;5011306;28;20034;-70
2023/07/24 04:21:26;;;;;;;9.05;4.80;;;16.70;98.10;;;;;;5010311;28;20117;-70
2023/07/24 04:23:52;;;;;;;7.07;4.53;;;16.70;98.10;;;;;;5010912;28;20041;-70
2023/07/24 04:26:17;;;;;;;7.50;5.40;;;16.70;98.10;;;;;;5011935;28;20037;-70
2023/07/24 04:28:43;;;;;;;7.50;4.55;;;16.80;98.10;;;;;;5013479;28;20030;-70
2023/07/24 04:31:08;;;;;;;8.73;4.95;;;16.80;98.20;;;;;;5009368;28;20238;-70
2023/07/24 04:33:34;;;;;;;9.90;4.88;;;16.90;98.10;;;;;;5005600;28;20045;-71
2023/07/24 04:35:59;;;;;;;8.18;4.70;;;16.90;98.00;;;;;;5008610;28;20107;-70
2023/07/24 04:38:25;;;;;;;7.43;4.68;;;17.00;97.80;;;;;;5013084;28;20029;-72
2023/07/24 04:40:50;;;;;;;6.88;4.80;;;17.00;97.70;;;;;;5008560;28;20095;-71
2023/07/24 04:43:16;;;;;;;7.60;4.35;;;17.00;97.70;;;;;;5012374;28;20065;-71
2023/07/24 04:45:41;;;;;;;7.47;4.40;;;17.00;97.60;;;;;;5010042;28;20068;-71
2023/07/24 04:48:07;;;;;;;6.82;4.30;;;17.00;97.60;;;;;;5012765;28;20033;-71
2023/07/24 04:50:32;;;;;;;6.30;4.38;;;17.00;97.60;;;;;;5007980;28;20042;-71
2023/07/24 04:52:58;;;;;;;6.75;4.50;;;17.10;97.60;;;;;;5006667;28;20042;-70
2023/07/24 04:55:24;;;;;;;7.93;4.10;;;17.10;97.70;;;;;;5009870;28;20025;-71
2023/07/24 04:57:49;;;;;;;9.43;4.35;;;17.20;97.60;;;;;;5013494;28;20061;-71
2023/07/24 05:00:15;;;;;;;6.60;3.92;;;17.30;97.70;;;;;;5012821;28;20030;-70
2023/07/24 05:02:40;;;;;;;7.10;3.78;;;17.30;97.50;;;;;;5007209;28;20037;-70
2023/07/24 05:05:06;;;;;;;6.45;3.78;;;17.50;97.50;;;;;;5007680;28;20088;-71
2023/07/24 05:07:32;;;;;;;4.78;3.35;;;17.60;97.10;;;;;;5008285;28;20446;-71
2023/07/24 05:09:57;;;;;;;8.07;3.63;;;17.80;96.90;;;;;;5008546;28;20030;-71
2023/07/24 05:12:23;;;;;;;5.70;3.22;;;18.00;96.50;;;;;;5009024;28;20037;-71
2023/07/24 05:14:48;;;;;;;5.05;3.33;;;18.10;95.90;;;;;;5002075;28;20038;-71
2023/07/24 05:17:14;;;;;;;7.65;3.60;;;18.20;95.70;;;;;;5010145;28;20026;-71
2023/07/24 05:19:39;;;;;;;4.45;3.13;;;18.40;95.40;;;;;;5011784;28;20168;-72
2023/07/24 05:22:05;;;;;;;5.00;2.75;;;18.30;94.70;;;;;;5010337;28;20029;-71
2023/07/24 05:24:31;;;;;;;4.05;2.55;;;18.40;95.00;;;;;;5007467;28;20040;-71
2023/07/24 05:26:56;;;;;;;5.18;2.55;;;18.30;94.60;;;;;;5011134;28;20044;-71
2023/07/24 05:29:22;;;;;;;5.50;2.45;;;18.30;95.00;;;;;;5010331;28;20053;-71
2023/07/24 05:31:47;;;;;;;4.15;2.65;;;18.30;95.10;;;;;;5007868;28;20036;-70
2023/07/24 05:34:13;;;;;;;3.97;2.30;;;18.30;95.20;;;;;;5005737;28;20038;-71
2023/07/24 05:36:40;;;;;;;4.43;2.55;;;18.20;95.10;;;;;;5008703;28;20041;-71
2023/07/24 05:39:05;;;;;;;3.75;2.40;;;18.20;95.00;;;;;;5009820;28;20041;-71
2023/07/24 05:41:31;;;;;;;4.57;2.38;;;18.20;95.20;;;;;;5006611;28;20084;-72
2023/07/24 05:43:56;;;;;;;7.65;2.70;;;18.30;95.40;;;;;;5008730;28;20045;-71
2023/07/24 05:46:22;;;;;;;3.83;2.50;;;18.20;95.10;;;;;;5007080;28;20037;-71
2023/07/24 05:48:48;;;;;;;5.60;2.72;;;18.20;95.20;;;;;;5001052;28;20024;-71
2023/07/24 05:51:13;;;;;;;4.63;2.88;;;18.30;95.20;;;;;;5006779;28;20030;-71
2023/07/24 05:53:39;;;;;;;5.35;2.47;;;18.40;94.90;;;;;;5009306;28;20064;-71
2023/07/24 05:56:04;;;;;;;5.07;2.85;;;18.40;95.10;;;;;;5009113;28;20025;-71
2023/07/24 05:58:30;;;;;;;4.20;2.53;;;18.30;94.00;;;;;;5009115;28;20061;-71
2023/07/24 06:00:55;;;;;;;4.55;2.35;;;18.50;94.30;;;;;;5006985;28;20035;-71
2023/07/24 06:03:22;;;;;;;3.65;2.20;;;18.50;94.30;;;;;;5010698;28;20037;-71
2023/07/24 06:05:52;;;;;;;6.40;2.33;;;18.50;94.60;;;;;;5003933;28;20036;-71
2023/07/24 06:08:18;;;;;;;4.25;2.38;;;18.50;94.70;;;;;;5008678;28;20084;-71
2023/07/24 06:10:45;;;;;;;3.88;2.50;;;18.50;94.80;;;;;;5008022;28;20487;-71
2023/07/24 06:13:10;;;;;;;5.22;2.38;;;18.40;94.90;;;;;;5007416;28;20450;-71
2023/07/24 06:15:36;;;;;;;6.28;2.55;;;18.40;95.00;;;;;;5006824;28;20021;-71
2023/07/24 06:18:01;;;;;;;4.25;2.28;;;18.40;94.80;;;;;;5008203;28;20446;-71
2023/07/24 06:20:27;;;;;;;4.15;2.30;;;18.40;94.80;;;;;;5007092;28;20022;-71
2023/07/24 06:22:52;;;;;;;3.75;2.30;;;18.40;94.80;;;;;;5003783;28;20034;-71
2023/07/24 06:25:18;;;;;;;4.45;2.08;;;18.40;95.00;;;;;;5010557;28;20104;-71
2023/07/24 06:27:43;;;;;;;4.47;1.83;;;18.40;95.00;;;;;;5006350;28;20030;-71
2023/07/24 06:30:09;;;;;;;3.40;2.20;;;18.40;95.10;;;;;;5004659;28;20026;-70
2023/07/24 06:32:34;;;;;;;4.38;2.60;;;18.30;95.10;;;;;;4999398;28;20707;-70
2023/07/24 06:35:00;;;;;;;4.78;2.35;;;18.30;95.10;;;;;;5007292;28;20542;-71
2023/07/24 06:37:25;;;;;;;3.85;2.17;;;18.40;94.90;;;;;;5011781;28;20038;-71
2023/07/24 06:39:51;;;;;;;3.75;2.35;;;18.30;95.20;;;;;;5008864;28;20021;-71
2023/07/24 06:42:16;;;;;;;4.70;2.35;;;18.40;95.20;;;;;;5009494;28;20029;-71
2023/07/24 06:44:42;;;;;;;5.00;2.53;;;18.50;95.00;;;;;;5010292;28;20069;-73
2023/07/24 06:47:07;;;;;;;4.10;2.65;;;18.50;94.80;;;;;;5003147;28;20037;-71
2023/07/24 06:49:32;;;;;;;5.32;3.03;;;18.50;94.60;;;;;;5009003;28;20038;-71
2023/07/24 06:51:58;;;;;;;4.50;3.10;;;18.50;94.30;;;;;;5006031;28;20548;-71
2023/07/24 06:54:23;;;;;;;4.47;2.90;;;18.50;94.70;;;;;;5004997;28;20036;-71
2023/07/24 06:56:49;;;;;;;4.53;2.92;;;18.50;94.80;;;;;;5010611;28;20081;-72
2023/07/24 06:59:14;;;;;;;4.72;3.33;;;18.40;94.90;;;;;;5009804;28;20036;-72
2023/07/24 07:01:40;;;;;;;5.78;3.30;;;18.40;94.70;;;;;;5007565;28;20454;-72
2023/07/24 07:04:05;;;;;;;5.88;3.67;;;18.40;94.90;;;;;;5008069;28;20093;-72
2023/07/24 07:06:30;;;;;;;5.80;3.80;;;18.30;95.10;;;;;;4997498;28;20030;-72
2023/07/24 07:08:56;;;;;;;4.72;3.35;;;18.30;95.10;;;;;;4996977;28;20080;-71
2023/07/24 07:11:21;;;;;;;4.38;3.42;;;18.30;95.20;;;;;;5005143;28;20749;-71
2023/07/24 07:13:47;;;;;;;5.93;4.53;;;18.30;95.20;;;;;;5000087;28;20049;-71
2023/07/24 07:16:12;;;;;;;6.95;4.13;;;18.40;95.40;;;;;;5010086;28;20370;-71
2023/07/24 07:18:38;;;;;;;7.05;3.90;;;18.30;95.50;;;;;;5008849;28;20018;-72
2023/07/24 07:21:04;;;;;;;6.32;4.10;;;18.30;95.90;;;;;;5004798;28;20065;-71
2023/07/24 07:23:29;;;;;;;5.75;4.82;;;18.40;96.30;;;;;;5006691;28;20044;-72
2023/07/24 07:25:54;;;;;;;7.82;4.90;;;18.30;96.50;;;;;;5003562;28;20041;-72
2023/07/24 07:28:21;;;;;;;7.35;5.15;;;18.30;96.90;;;;;;5008287;28;20467;-72
2023/07/24 07:30:47;;;;;;;6.68;5.70;;;18.20;96.90;;;;;;5003165;28;20018;-71
2023/07/24 07:33:12;;;;;;;7.68;5.78;;;18.20;97.10;;;;;;5008520;28;20033;-71
2023/07/24 07:35:38;;;;;;;8.82;6.35;;;18.10;97.40;;;;;;5007530;28;20030;-72
2023/07/24 07:38:03;;;;;;;9.95;6.80;;;18.10;97.60;;;;;;5002514;28;20026;-72
2023/07/24 07:40:29;;;;;;;7.72;6.90;;;18.00;97.80;;;;;;5000397;28;20359;-72
2023/07/24 07:42:55;;;;;;;10.90;7.80;;;18.00;97.90;;;;;;5009526;28;20030;-72
2023/07/24 07:45:22;;;;;;;10.05;7.57;;;18.00;98.00;;;;;;5004640;28;20156;-71
2023/07/24 07:47:47;;;;;;;9.05;7.40;;;18.00;98.10;;;;;;5003504;28;20034;-71
2023/07/24 07:50:13;;;;;;;8.75;6.65;;;18.00;98.20;;;;;;5006392;28;20037;-72
2023/07/24 07:52:38;;;;;;;9.95;7.80;;;18.00;98.20;;;;;;5006713;28;20443;-71
2023/07/24 07:55:06;;;;;;;7.13;6.30;;;18.00;98.30;;;;;;5000436;28;20113;-71
2023/07/24 07:57:38;;;;;;;8.95;7.55;;;18.10;98.20;;;;;;5015537;28;20096;-70
2023/07/24 08:00:05;;;;;;;10.43;8.20;;;18.00;98.30;;;;;;5000949;28;20124;-71
2023/07/24 08:02:31;;;;;;;9.65;7.75;;;18.00;98.20;;;;;;5009900;28;20052;-70
2023/07/24 08:04:57;;;;;;;8.15;7.10;;;18.00;98.40;;;;;;5003367;28;20123;-70
2023/07/24 08:07:23;;;;;;;10.95;8.07;;;18.00;98.30;;;;;;5012896;28;20081;-70
2023/07/24 08:09:48;;;;;;;8.90;8.00;;;18.00;98.10;;;;;;5006259;28;20075;-71
2023/07/24 08:12:14;;;;;;;11.27;8.10;;;18.40;98.30;;;;;;5007664;28;20031;-71
2023/07/24 08:14:39;;;;;;;9.13;7.80;;;18.50;97.70;;;;;;5014102;28;20489;-71
2023/07/24 08:17:05;;;;;;;8.50;7.07;;;18.80;97.40;;;;;;5011603;28;20029;-72
2023/07/24 08:19:30;;;;;;;7.75;6.00;;;18.80;96.40;;;;;;5010395;28;20378;-71
2023/07/24 08:21:56;;;;;;;7.00;5.68;;;18.90;96.00;;;;;;5005163;28;20030;-71
2023/07/24 08:24:21;;;;;;;6.85;5.75;;;19.00;96.20;;;;;;5007355;28;20030;-71
2023/07/24 08:26:47;;;;;;;6.45;5.00;;;19.00;95.50;;;;;;5009417;28;20402;-70
2023/07/24 08:29:12;;;;;;;6.68;4.80;;;19.00;95.30;;;;;;5007701;28;20021;-71
2023/07/24 08:31:38;;;;;;;8.55;4.95;;;19.10;95.20;;;;;;5006520;28;20025;-71
2023/07/24 08:34:03;;;;;;;7.07;4.32;;;19.10;94.60;;;;;;5009864;28;20195;-71
2023/07/24 08:36:29;;;;;;;6.43;4.53;;;19.20;94.90;;;;;;5010192;28;20033;-71
2023/07/24 08:38:55;;;;;;;6.93;4.80;;;19.30;94.60;;;;;;5023614;28;20089;-71
2023/07/24 08:41:20;;;;;;;7.03;4.63;;;19.70;94.50;;;;;;5008098;28;20486;-71
2023/07/24 08:43:46;;;;;;;6.50;4.70;;;20.00;93.10;;;;;;5003238;28;20033;-71
2023/07/24 08:46:12;;;;;;;7.10;4.40;;;19.90;92.20;;;;;;5008131;28;20483;-70
2023/07/24 08:48:39;;;;;;;6.68;4.70;;;20.00;92.50;;;;;;5009849;28;20400;-70
2023/07/24 08:51:06;;;;;;;6.10;4.55;;;19.80;91.30;;;;;;4996661;28;20259;-70
2023/07/24 08:53:37;;;;;;;5.20;3.88;;;19.90;91.70;;;;;;5006267;28;20343;-70
2023/07/24 08:56:07;;;;;;;6.78;4.75;;;20.00;91.30;;;;;;5021460;28;20020;-69
2023/07/24 08:58:34;;;;;;;8.32;4.30;;;20.00;90.20;;;;;;5012604;28;20117;-70
2023/07/24 09:01:01;;;;;;;5.60;4.07;;;20.00;90.50;;;;;;5011611;28;20034;-69
2023/07/24 09:03:26;;;;;;;5.38;3.60;;;20.00;89.50;;;;;;5003443;28;20052;-70
2023/07/24 09:05:52;;;;;;;4.85;3.88;;;20.20;89.70;;;;;;5009566;28;20030;-70
2023/07/24 09:08:35;;;;;;;7.35;4.45;;;20.40;89.50;;;;;;5010860;28;20434;-69
2023/07/24 09:11:02;;;;;;;6.18;4.38;;;20.60;88.70;;;;;;5011473;28;20030;-70
2023/07/24 09:13:28;;;;;;;5.10;3.85;;;20.50;88.10;;;;;;5008868;28;20041;-70
2023/07/24 09:15:55;;;;;;;5.72;4.00;;;20.30;88.60;;;;;;5011695;28;20025;-70
2023/07/24 09:18:21;;;;;;;7.32;3.95;;;20.30;88.70;;;;;;5011072;28;20030;-70
2023/07/24 09:20:47;;;;;;;5.82;3.95;;;20.00;88.20;;;;;;5011441;28;20028;-69
2023/07/24 09:23:14;;;;;;;4.82;3.53;;;20.00;89.30;;;;;;5015378;28;20406;-69
2023/07/24 09:25:40;;;;;;;5.28;3.80;;;20.00;88.00;;;;;;5003008;28;20022;-70
2023/07/24 09:28:14;;;;;;;7.38;4.32;;;19.90;88.80;;;;;;5011039;28;20018;-69
2023/07/24 09:30:40;;;;;;;5.75;3.97;;;20.00;89.70;;;;;;5012623;28;20034;-70
2023/07/24 09:33:07;;;;;;;7.65;3.95;;;20.30;89.60;;;;;;5010414;28;20017;-70
2023/07/24 09:35:32;;;;;;;6.00;4.05;;;20.50;89.20;;;;;;5005151;28;20092;-69
2023/07/24 09:38:09;;;;;;;6.25;3.80;;;20.30;87.40;;;;;;5010390;28;20109;-70
2023/07/24 09:40:42;;;;;;;5.20;3.50;;;20.30;86.50;;;;;;5007918;28;20025;-69
2023/07/24 09:43:25;;;;;;;5.00;3.58;;;20.20;87.50;;;;;;5006942;28;20382;-69
2023/07/24 09:45:52;;;;;;;6.45;4.00;;;20.20;87.00;;;;;;5012785;28;20030;-70
2023/07/24 09:48:19;;;;;;;6.05;3.60;;;20.00;87.70;;;;;;5008960;28;20034;-70
2023/07/24 09:50:47;;;;;;;5.60;3.75;;;20.00;88.90;;;;;;5010189;28;20367;-70
2023/07/24 09:53:20;;;;;;;6.80;4.18;;;20.00;88.40;;;;;;5010597;28;20061;-69
2023/07/24 09:55:56;;;;;;;7.65;4.53;;;20.00;88.70;;;;;;5011462;28;20034;-70
2023/07/24 09:58:23;;;;;;;9.88;5.25;;;19.90;89.20;;;;;;5009326;28;20021;-70
2023/07/24 10:00:50;;;;;;;6.25;4.63;;;19.80;89.50;;;;;;5010535;28;20026;-70
2023/07/24 10:03:16;;;;;;;7.97;4.93;;;19.80;89.80;;;;;;5009819;28;20049;-70
2023/07/24 10:05:45;;;;;;;8.32;4.85;;;19.80;89.80;;;;;;5010286;28;20025;-69
2023/07/24 10:08:11;;;;;;;6.60;4.38;;;19.70;89.60;;;;;;5010392;28;20033;-70
2023/07/24 10:10:38;;;;;;;7.57;4.22;;;19.90;89.50;;;;;;5007994;28;20034;-70
2023/07/24 10:13:05;;;;;;;6.28;4.68;;;20.10;89.20;;;;;;5009707;28;20034;-70
2023/07/24 10:15:31;;;;;;;5.75;3.95;;;20.20;88.50;;;;;;5008124;28;20137;-70
2023/07/24 10:18:05;;;;;;;6.07;4.63;;;20.20;89.00;;;;;;5007633;28;20026;-70
2023/07/24 10:20:39;;;;;;;7.55;4.93;;;20.20;88.90;;;;;;5009461;28;20197;-70
2023/07/24 10:23:06;;;;;;;6.78;4.75;;;20.30;89.10;;;;;;5012670;28;20026;-70
2023/07/24 10:25:32;;;;;;;5.97;4.40;;;20.90;87.60;;;;;;5011809;28;20348;-70
2023/07/24 10:28:02;;;;;;;6.40;4.25;;;20.90;86.30;;;;;;5003926;28;20036;-70
2023/07/24 10:30:29;;;;;;;7.18;4.22;;;20.90;86.20;;;;;;4995615;28;21395;-70
2023/07/24 10:33:03;;;;;;;5.93;4.03;;;20.90;85.90;;;;;;5002331;28;20347;-70
2023/07/24 10:35:37;;;;;;;5.80;4.00;;;20.80;86.30;;;;;;5002151;28;20417;-70
2023/07/24 10:38:02;;;;;;;5.90;3.90;;;20.70;86.60;;;;;;5006351;28;20021;-70
2023/07/24 10:40:28;;;;;;;5.15;3.50;;;20.50;86.50;;;;;;5006706;28;20048;-69
2023/07/24 10:43:08;;;;;;;4.80;3.47;;;20.40;87.90;;;;;;5006973;28;20033;-69
2023/07/24 10:45:48;;;;;;;5.10;3.35;;;20.40;88.60;;;;;;5007105;28;20084;-69
2023/07/24 10:48:15;;;;;;;4.43;3.20;;;20.20;87.60;;;;;;5007617;28;20104;-69
2023/07/24 10:50:42;;;;;;;4.05;3.10;;;20.40;88.00;;;;;;5000458;28;20029;-69
2023/07/24 10:53:13;;;;;;;6.80;3.45;;;20.50;87.80;;;;;;5008594;28;20030;-69
2023/07/24 10:55:39;;;;;;;5.13;3.60;;;21.00;87.90;;;;;;5006730;28;20350;-69
2023/07/24 10:58:06;;;;;;;7.43;3.40;;;21.00;86.90;;;;;;5005895;28;20034;-69
2023/07/24 11:00:31;;;;;;;4.60;3.20;;;21.10;86.00;;;;;;5005217;28;20121;-69
2023/07/24 11:02:57;;;;;;;4.78;2.63;;;21.40;84.80;;;;;;5004725;28;20142;-69
2023/07/24 11:05:23;;;;;;;4.78;3.17;;;21.60;84.60;;;;;;5007956;28;20428;-69
2023/07/24 11:07:49;;;;;;;4.43;2.60;;;21.70;84.30;;;;;;5008042;28;20423;-69
2023/07/24 11:10:21;;;;;;;4.65;2.45;;;21.90;83.70;;;;;;5015889;28;20064;-69
2023/07/24 11:12:47;;;;;;;4.28;2.53;;;22.20;83.50;;;;;;5006497;28;20414;-69
2023/07/24 11:15:14;;;;;;;4.57;2.50;;;22.70;80.80;;;;;;5010892;28;20362;-70
2023/07/24 11:17:41;;;;;;;4.25;2.47;;;23.20;80.10;;;;;;5006796;28;20386;-70
2023/07/24 11:20:14;;;;;;;4.00;2.35;;;23.80;78.30;;;;;;5005819;28;20038;-74
2023/07/24 11:22:42;;;;;;;3.72;2.10;;;23.70;77.50;;;;;;5007460;28;20030;-68
2023/07/24 11:25:09;;;;;;;3.88;1.98;;;23.10;75.80;;;;;;5002199;28;20034;-68
2023/07/24 11:27:43;;;;;;;2.53;1.92;;;23.00;77.40;;;;;;5010814;28;20030;-68
2023/07/24 11:30:18;;;;;;;4.30;1.92;;;22.70;77.10;;;;;;5004009;28;20428;-69
2023/07/24 11:32:44;;;;;;;2.58;1.95;;;22.70;79.20;;;;;;5012557;28;20029;-69
2023/07/24 11:35:10;;;;;;;4.15;1.83;;;22.90;78.40;;;;;;5011406;28;20427;-69
2023/07/24 11:37:36;;;;;;;2.38;1.80;;;22.60;77.50;;;;;;5008029;28;20026;-69
2023/07/24 11:40:08;;;;;;;3.13;1.67;;;22.60;75.80;;;;;;5008048;28;20521;-69
2023/07/24 11:42:36;;;;;;;4.50;1.70;;;23.00;76.00;;;;;;5011682;28;20037;-70
2023/07/24 11:45:02;;;;;;;2.97;1.65;;;23.40;74.20;;;;;;5006662;28;20582;-70
2023/07/24 11:47:29;;;;;;;3.92;1.80;;;23.00;75.50;;;;;;5008830;28;20060;-69
2023/07/24 11:49:59;;;;;;;3.65;1.73;;;23.90;73.20;;;;;;5008411;28;20125;-69
2023/07/24 11:52:25;;;;;;;3.55;1.90;;;23.90;72.00;;;;;;5010747;28;20084;-70
2023/07/24 11:55:00;;;;;;;2.80;1.83;;;24.30;71.70;;;;;;5008011;28;20042;-69
2023/07/24 11:57:27;;;;;;;1.88;1.52;;;24.40;71.90;;;;;;5011450;28;20466;-70
2023/07/24 11:59:53;;;;;;;2.92;1.65;;;24.40;70.60;;;;;;5008350;28;20025;-69
2023/07/24 12:02:19;;;;;;;1.70;1.50;;;24.70;71.70;;;;;;5007633;28;20060;-69
2023/07/24 12:04:45;;;;;;;1.92;1.63;;;24.80;67.90;;;;;;5007823;28;20078;-69
2023/07/24 12:07:11;;;;;;;2.28;1.50;;;24.90;69.30;;;;;;5005166;28;20072;-69
2023/07/24 12:09:36;;;;;;;2.42;1.60;;;24.40;67.90;;;;;;5006484;28;20423;-69
2023/07/24 12:12:05;;;;;;;2.60;1.60;;;24.30;68.40;;;;;;5004479;28;20026;-69
2023/07/24 12:14:30;;;;;;;3.20;1.80;;;24.30;69.20;;;;;;5007323;28;20124;-69
2023/07/24 12:17:03;;;;;;;3.75;1.50;;;24.90;69.90;;;;;;5008619;28;20103;-69
2023/07/24 12:19:28;;;;;;;2.80;1.65;;;24.40;69.00;;;;;;5010173;28;20022;-69
2023/07/24 12:21:54;;;;;;;2.38;1.77;;;25.10;67.50;;;;;;5009098;28;20091;-69
2023/07/24 12:24:20;;;;;;;4.50;1.95;;;24.70;68.20;;;;;;5012137;28;20105;-69
2023/07/24 12:26:45;;;;;;;4.13;2.00;;;24.20;69.00;;;;;;5005078;28;20066;-69
2023/07/24 12:29:11;;;;;;;3.20;2.30;;;23.80;68.20;;;;;;5008474;28;20116;-69
2023/07/24 12:31:36;;;;;;;3.78;2.10;;;24.20;69.20;;;;;;5003337;28;20443;-69
2023/07/24 12:34:01;;;;;;;5.13;2.13;;;24.20;70.40;;;;;;5007274;28;20026;-68
2023/07/24 12:36:27;;;;;;;3.03;1.95;;;24.00;70.00;;;;;;5015081;28;20061;-68
2023/07/24 12:38:53;;;;;;;3.17;2.00;;;24.30;68.60;;;;;;5009338;28;20556;-68
2023/07/24 12:41:19;;;;;;;3.25;2.30;;;23.90;69.30;;;;;;5014285;28;20120;-68